sensor_id;sensor_type;location;lat;lon;timestamp;P1;durP1;ratioP1;P2;durP2;ratioP2
54735;SDS011;40632;51.442;11.936;2022-07-30T00:01:31;7.00;;;5.60;;
54735;SDS011;40632;51.442;11.936;2022-07-30T00:03:56;9.85;;;6.15;;
54735;SDS011;40632;51.442;11.936;2022-07-30T00:06:22;8.07;;;5.53;;
54735;SDS011;40632;51.442;11.936;2022-07-30T00:08:48;10.48;;;6.07;;
54735;SDS011;40632;51.442;11.936;2022-07-30T00:11:13;8.27;;;5.78;;
54735;SDS011;40632;51.442;11.936;2022-07-30T00:13:39;6.85;;;6.18;;
54735;SDS011;40632;51.442;11.936;2022-07-30T00:16:04;11.13;;;6.93;;
54735;SDS011;40632;51.442;11.936;2022-07-30T00:18:33;8.30;;;6.97;;
54735;SDS011;40632;51.442;11.936;2022-07-30T00:20:59;8.75;;;6.85;;
54735;SDS011;40632;51.442;11.936;2022-07-30T00:23:25;8.68;;;6.70;;
54735;SDS011;40632;51.442;11.936;2022-07-30T00:25:50;8.82;;;7.03;;
54735;SDS011;40632;51.442;11.936;2022-07-30T00:28:16;8.88;;;6.45;;
54735;SDS011;40632;51.442;11.936;2022-07-30T00:30:41;8.95;;;6.05;;
54735;SDS011;40632;51.442;11.936;2022-07-30T00:33:07;7.78;;;6.57;;
54735;SDS011;40632;51.442;11.936;2022-07-30T00:35:35;9.10;;;6.55;;
54735;SDS011;40632;51.442;11.936;2022-07-30T00:38:01;9.65;;;6.15;;
54735;SDS011;40632;51.442;11.936;2022-07-30T00:40:27;12.07;;;6.70;;
54735;SDS011;40632;51.442;11.936;2022-07-30T00:42:53;8.75;;;6.32;;
54735;SDS011;40632;51.442;11.936;2022-07-30T00:45:18;8.90;;;6.35;;
54735;SDS011;40632;51.442;11.936;2022-07-30T00:47:44;7.75;;;6.28;;
54735;SDS011;40632;51.442;11.936;2022-07-30T00:50:10;7.05;;;6.15;;
54735;SDS011;40632;51.442;11.936;2022-07-30T00:52:39;10.02;;;6.50;;
54735;SDS011;40632;51.442;11.936;2022-07-30T00:55:07;10.18;;;5.75;;
54735;SDS011;40632;51.442;11.936;2022-07-30T00:57:34;8.95;;;5.68;;
54735;SDS011;40632;51.442;11.936;2022-07-30T01:00:00;9.70;;;6.20;;
54735;SDS011;40632;51.442;11.936;2022-07-30T01:02:26;9.52;;;5.75;;
54735;SDS011;40632;51.442;11.936;2022-07-30T01:04:52;7.38;;;5.85;;
54735;SDS011;40632;51.442;11.936;2022-07-30T01:07:17;10.43;;;5.90;;
54735;SDS011;40632;51.442;11.936;2022-07-30T01:09:45;7.43;;;6.10;;
54735;SDS011;40632;51.442;11.936;2022-07-30T01:12:18;6.43;;;5.82;;
54735;SDS011;40632;51.442;11.936;2022-07-30T01:14:47;11.07;;;6.00;;
54735;SDS011;40632;51.442;11.936;2022-07-30T01:17:13;9.63;;;6.22;;
54735;SDS011;40632;51.442;11.936;2022-07-30T01:19:39;9.32;;;6.75;;
54735;SDS011;40632;51.442;11.936;2022-07-30T01:22:09;12.90;;;7.20;;
54735;SDS011;40632;51.442;11.936;2022-07-30T01:24:42;8.05;;;7.25;;
54735;SDS011;40632;51.442;11.936;2022-07-30T01:27:18;9.40;;;5.78;;
54735;SDS011;40632;51.442;11.936;2022-07-30T01:29:46;8.13;;;6.03;;
54735;SDS011;40632;51.442;11.936;2022-07-30T01:32:14;8.32;;;6.70;;
54735;SDS011;40632;51.442;11.936;2022-07-30T01:34:42;7.90;;;6.28;;
54735;SDS011;40632;51.442;11.936;2022-07-30T01:37:10;7.32;;;6.28;;
54735;SDS011;40632;51.442;11.936;2022-07-30T01:39:37;9.00;;;5.93;;
54735;SDS011;40632;51.442;11.936;2022-07-30T01:42:03;7.60;;;6.03;;
54735;SDS011;40632;51.442;11.936;2022-07-30T01:44:33;8.77;;;6.47;;
54735;SDS011;40632;51.442;11.936;2022-07-30T01:47:01;8.98;;;6.90;;
54735;SDS011;40632;51.442;11.936;2022-07-30T01:49:28;9.05;;;6.13;;
54735;SDS011;40632;51.442;11.936;2022-07-30T01:51:56;8.27;;;7.10;;
54735;SDS011;40632;51.442;11.936;2022-07-30T01:54:24;9.95;;;6.95;;
54735;SDS011;40632;51.442;11.936;2022-07-30T01:56:51;8.68;;;6.75;;
54735;SDS011;40632;51.442;11.936;2022-07-30T01:59:20;8.57;;;6.53;;
54735;SDS011;40632;51.442;11.936;2022-07-30T02:01:51;9.88;;;7.32;;
54735;SDS011;40632;51.442;11.936;2022-07-30T02:04:17;11.07;;;6.78;;
54735;SDS011;40632;51.442;11.936;2022-07-30T02:06:45;8.25;;;7.45;;
54735;SDS011;40632;51.442;11.936;2022-07-30T02:09:17;8.48;;;7.68;;
54735;SDS011;40632;51.442;11.936;2022-07-30T02:11:47;9.82;;;7.78;;
54735;SDS011;40632;51.442;11.936;2022-07-30T02:14:16;10.55;;;8.13;;
54735;SDS011;40632;51.442;11.936;2022-07-30T02:16:46;10.45;;;8.80;;
54735;SDS011;40632;51.442;11.936;2022-07-30T02:19:18;10.75;;;9.65;;
54735;SDS011;40632;51.442;11.936;2022-07-30T02:21:46;10.07;;;9.02;;
54735;SDS011;40632;51.442;11.936;2022-07-30T02:24:13;11.75;;;8.98;;
54735;SDS011;40632;51.442;11.936;2022-07-30T02:26:42;11.80;;;10.60;;
54735;SDS011;40632;51.442;11.936;2022-07-30T02:29:10;11.00;;;9.90;;
54735;SDS011;40632;51.442;11.936;2022-07-30T02:31:36;11.05;;;9.95;;
54735;SDS011;40632;51.442;11.936;2022-07-30T02:34:06;9.73;;;8.82;;
54735;SDS011;40632;51.442;11.936;2022-07-30T02:36:34;11.27;;;9.27;;
54735;SDS011;40632;51.442;11.936;2022-07-30T02:39:02;12.32;;;9.05;;
54735;SDS011;40632;51.442;11.936;2022-07-30T02:41:29;17.55;;;9.35;;
54735;SDS011;40632;51.442;11.936;2022-07-30T02:43:57;11.88;;;10.07;;
54735;SDS011;40632;51.442;11.936;2022-07-30T02:46:24;12.05;;;10.85;;
54735;SDS011;40632;51.442;11.936;2022-07-30T02:48:50;16.00;;;13.00;;
54735;SDS011;40632;51.442;11.936;2022-07-30T02:51:21;15.73;;;13.60;;
54735;SDS011;40632;51.442;11.936;2022-07-30T02:53:49;16.17;;;14.52;;
54735;SDS011;40632;51.442;11.936;2022-07-30T02:56:17;16.35;;;14.23;;
54735;SDS011;40632;51.442;11.936;2022-07-30T02:58:44;18.70;;;15.73;;
54735;SDS011;40632;51.442;11.936;2022-07-30T03:01:12;22.05;;;15.57;;
54735;SDS011;40632;51.442;11.936;2022-07-30T03:03:40;20.85;;;16.83;;
54735;SDS011;40632;51.442;11.936;2022-07-30T03:06:07;19.80;;;16.90;;
54735;SDS011;40632;51.442;11.936;2022-07-30T03:08:36;21.15;;;18.13;;
54735;SDS011;40632;51.442;11.936;2022-07-30T03:11:02;21.73;;;17.70;;
54735;SDS011;40632;51.442;11.936;2022-07-30T03:13:29;22.65;;;19.90;;
54735;SDS011;40632;51.442;11.936;2022-07-30T03:15:55;21.75;;;18.73;;
54735;SDS011;40632;51.442;11.936;2022-07-30T03:18:22;19.60;;;17.10;;
54735;SDS011;40632;51.442;11.936;2022-07-30T03:20:52;19.92;;;17.95;;
54735;SDS011;40632;51.442;11.936;2022-07-30T03:23:20;20.67;;;18.48;;
54735;SDS011;40632;51.442;11.936;2022-07-30T03:25:51;20.90;;;18.70;;
54735;SDS011;40632;51.442;11.936;2022-07-30T03:28:20;18.83;;;16.92;;
54735;SDS011;40632;51.442;11.936;2022-07-30T03:30:47;21.77;;;17.27;;
54735;SDS011;40632;51.442;11.936;2022-07-30T03:33:14;21.88;;;18.25;;
54735;SDS011;40632;51.442;11.936;2022-07-30T03:35:40;26.55;;;18.30;;
54735;SDS011;40632;51.442;11.936;2022-07-30T03:38:09;23.48;;;18.85;;
54735;SDS011;40632;51.442;11.936;2022-07-30T03:40:35;20.90;;;18.70;;
54735;SDS011;40632;51.442;11.936;2022-07-30T03:43:04;21.67;;;17.80;;
54735;SDS011;40632;51.442;11.936;2022-07-30T03:45:31;20.17;;;18.08;;
54735;SDS011;40632;51.442;11.936;2022-07-30T03:47:57;21.13;;;18.13;;
54735;SDS011;40632;51.442;11.936;2022-07-30T03:50:24;22.05;;;17.20;;
54735;SDS011;40632;51.442;11.936;2022-07-30T03:52:50;19.40;;;17.02;;
54735;SDS011;40632;51.442;11.936;2022-07-30T03:55:16;21.20;;;18.98;;
54735;SDS011;40632;51.442;11.936;2022-07-30T03:57:42;18.95;;;16.98;;
54735;SDS011;40632;51.442;11.936;2022-07-30T04:00:14;18.13;;;16.33;;
54735;SDS011;40632;51.442;11.936;2022-07-30T04:02:40;19.45;;;16.00;;
54735;SDS011;40632;51.442;11.936;2022-07-30T04:05:06;18.13;;;15.48;;
54735;SDS011;40632;51.442;11.936;2022-07-30T04:07:32;17.08;;;14.07;;
54735;SDS011;40632;51.442;11.936;2022-07-30T04:09:58;18.00;;;14.35;;
54735;SDS011;40632;51.442;11.936;2022-07-30T04:12:23;19.00;;;14.43;;
54735;SDS011;40632;51.442;11.936;2022-07-30T04:14:49;17.80;;;14.73;;
54735;SDS011;40632;51.442;11.936;2022-07-30T04:17:19;18.50;;;16.50;;
54735;SDS011;40632;51.442;11.936;2022-07-30T04:22:16;17.10;;;14.82;;
54735;SDS011;40632;51.442;11.936;2022-07-30T04:24:47;17.83;;;14.32;;
54735;SDS011;40632;51.442;11.936;2022-07-30T04:27:13;16.17;;;14.30;;
54735;SDS011;40632;51.442;11.936;2022-07-30T04:29:41;15.55;;;12.15;;
54735;SDS011;40632;51.442;11.936;2022-07-30T04:32:06;17.17;;;13.57;;
54735;SDS011;40632;51.442;11.936;2022-07-30T04:34:35;17.05;;;12.52;;
54735;SDS011;40632;51.442;11.936;2022-07-30T04:37:01;13.77;;;12.48;;
54735;SDS011;40632;51.442;11.936;2022-07-30T04:39:27;17.23;;;14.90;;
54735;SDS011;40632;51.442;11.936;2022-07-30T04:41:52;16.98;;;14.95;;
54735;SDS011;40632;51.442;11.936;2022-07-30T04:44:18;19.20;;;14.50;;
54735;SDS011;40632;51.442;11.936;2022-07-30T04:46:44;16.13;;;14.15;;
54735;SDS011;40632;51.442;11.936;2022-07-30T04:49:10;14.45;;;11.98;;
54735;SDS011;40632;51.442;11.936;2022-07-30T04:51:40;11.35;;;10.02;;
54735;SDS011;40632;51.442;11.936;2022-07-30T04:54:08;14.48;;;10.02;;
54735;SDS011;40632;51.442;11.936;2022-07-30T04:56:37;17.05;;;11.52;;
54735;SDS011;40632;51.442;11.936;2022-07-30T04:59:04;14.02;;;11.27;;
54735;SDS011;40632;51.442;11.936;2022-07-30T05:01:33;18.85;;;10.40;;
54735;SDS011;40632;51.442;11.936;2022-07-30T05:03:59;13.77;;;9.75;;
54735;SDS011;40632;51.442;11.936;2022-07-30T05:06:27;10.98;;;8.93;;
54735;SDS011;40632;51.442;11.936;2022-07-30T05:08:57;13.10;;;8.88;;
54735;SDS011;40632;51.442;11.936;2022-07-30T05:11:22;13.50;;;8.85;;
54735;SDS011;40632;51.442;11.936;2022-07-30T05:13:48;12.60;;;8.85;;
54735;SDS011;40632;51.442;11.936;2022-07-30T05:16:14;12.40;;;9.20;;
54735;SDS011;40632;51.442;11.936;2022-07-30T05:18:40;11.80;;;8.05;;
54735;SDS011;40632;51.442;11.936;2022-07-30T05:21:06;13.38;;;8.75;;
54735;SDS011;40632;51.442;11.936;2022-07-30T05:23:31;14.98;;;9.68;;
54735;SDS011;40632;51.442;11.936;2022-07-30T05:26:00;11.10;;;8.27;;
54735;SDS011;40632;51.442;11.936;2022-07-30T05:28:26;12.85;;;8.25;;
54735;SDS011;40632;51.442;11.936;2022-07-30T05:30:52;11.88;;;7.95;;
54735;SDS011;40632;51.442;11.936;2022-07-30T05:33:18;11.40;;;7.43;;
54735;SDS011;40632;51.442;11.936;2022-07-30T05:35:43;12.13;;;7.30;;
54735;SDS011;40632;51.442;11.936;2022-07-30T05:38:09;8.13;;;7.03;;
54735;SDS011;40632;51.442;11.936;2022-07-30T05:40:34;9.00;;;6.85;;
54735;SDS011;40632;51.442;11.936;2022-07-30T05:43:03;11.88;;;7.68;;
54735;SDS011;40632;51.442;11.936;2022-07-30T05:45:28;8.98;;;7.18;;
54735;SDS011;40632;51.442;11.936;2022-07-30T05:47:54;11.07;;;7.60;;
54735;SDS011;40632;51.442;11.936;2022-07-30T05:50:20;11.00;;;7.70;;
54735;SDS011;40632;51.442;11.936;2022-07-30T05:52:45;11.27;;;7.93;;
54735;SDS011;40632;51.442;11.936;2022-07-30T05:55:11;10.63;;;7.15;;
54735;SDS011;40632;51.442;11.936;2022-07-30T05:57:36;9.90;;;6.53;;
54735;SDS011;40632;51.442;11.936;2022-07-30T06:00:05;9.63;;;6.57;;
54735;SDS011;40632;51.442;11.936;2022-07-30T06:02:32;9.38;;;6.78;;
54735;SDS011;40632;51.442;11.936;2022-07-30T06:04:58;10.15;;;6.00;;
54735;SDS011;40632;51.442;11.936;2022-07-30T06:07:23;10.57;;;6.53;;
54735;SDS011;40632;51.442;11.936;2022-07-30T06:09:49;13.52;;;6.07;;
54735;SDS011;40632;51.442;11.936;2022-07-30T06:12:15;8.40;;;6.07;;
54735;SDS011;40632;51.442;11.936;2022-07-30T06:14:40;8.43;;;6.05;;
54735;SDS011;40632;51.442;11.936;2022-07-30T06:17:09;9.13;;;5.95;;
54735;SDS011;40632;51.442;11.936;2022-07-30T06:19:34;9.65;;;5.68;;
54735;SDS011;40632;51.442;11.936;2022-07-30T06:22:00;9.70;;;5.70;;
54735;SDS011;40632;51.442;11.936;2022-07-30T06:24:25;9.00;;;5.65;;
54735;SDS011;40632;51.442;11.936;2022-07-30T06:26:51;8.15;;;5.72;;
54735;SDS011;40632;51.442;11.936;2022-07-30T06:29:16;8.77;;;5.57;;
54735;SDS011;40632;51.442;11.936;2022-07-30T06:31:42;11.57;;;5.95;;
54735;SDS011;40632;51.442;11.936;2022-07-30T06:34:10;8.00;;;5.88;;
54735;SDS011;40632;51.442;11.936;2022-07-30T06:36:36;7.72;;;5.25;;
54735;SDS011;40632;51.442;11.936;2022-07-30T06:39:02;8.05;;;5.22;;
54735;SDS011;40632;51.442;11.936;2022-07-30T06:41:27;9.45;;;5.45;;
54735;SDS011;40632;51.442;11.936;2022-07-30T06:43:53;7.70;;;5.25;;
54735;SDS011;40632;51.442;11.936;2022-07-30T06:46:18;7.13;;;5.72;;
54735;SDS011;40632;51.442;11.936;2022-07-30T06:48:44;8.57;;;5.70;;
54735;SDS011;40632;51.442;11.936;2022-07-30T06:51:12;10.73;;;5.65;;
54735;SDS011;40632;51.442;11.936;2022-07-30T06:53:38;7.65;;;5.75;;
54735;SDS011;40632;51.442;11.936;2022-07-30T06:56:03;9.75;;;5.63;;
54735;SDS011;40632;51.442;11.936;2022-07-30T06:58:29;8.02;;;5.90;;
54735;SDS011;40632;51.442;11.936;2022-07-30T07:00:54;9.85;;;5.70;;
54735;SDS011;40632;51.442;11.936;2022-07-30T07:03:20;7.30;;;5.07;;
54735;SDS011;40632;51.442;11.936;2022-07-30T07:05:46;7.82;;;5.32;;
54735;SDS011;40632;51.442;11.936;2022-07-30T07:08:14;9.10;;;5.55;;
54735;SDS011;40632;51.442;11.936;2022-07-30T07:10:39;7.80;;;5.00;;
54735;SDS011;40632;51.442;11.936;2022-07-30T07:13:05;7.60;;;5.43;;
54735;SDS011;40632;51.442;11.936;2022-07-30T07:15:30;7.68;;;5.32;;
54735;SDS011;40632;51.442;11.936;2022-07-30T07:17:56;8.65;;;5.38;;
54735;SDS011;40632;51.442;11.936;2022-07-30T07:20:22;9.23;;;5.50;;
54735;SDS011;40632;51.442;11.936;2022-07-30T07:22:47;9.55;;;4.60;;
54735;SDS011;40632;51.442;11.936;2022-07-30T07:25:16;10.52;;;5.53;;
54735;SDS011;40632;51.442;11.936;2022-07-30T07:27:41;8.13;;;5.70;;
54735;SDS011;40632;51.442;11.936;2022-07-30T07:30:07;7.07;;;5.53;;
54735;SDS011;40632;51.442;11.936;2022-07-30T07:32:34;10.35;;;5.07;;
54735;SDS011;40632;51.442;11.936;2022-07-30T07:35:00;7.65;;;4.97;;
54735;SDS011;40632;51.442;11.936;2022-07-30T07:37:26;7.70;;;5.72;;
54735;SDS011;40632;51.442;11.936;2022-07-30T07:39:51;8.25;;;5.65;;
54735;SDS011;40632;51.442;11.936;2022-07-30T07:42:19;8.68;;;5.95;;
54735;SDS011;40632;51.442;11.936;2022-07-30T07:44:45;8.18;;;5.00;;
54735;SDS011;40632;51.442;11.936;2022-07-30T07:47:11;6.55;;;5.00;;
54735;SDS011;40632;51.442;11.936;2022-07-30T07:49:36;12.32;;;5.97;;
54735;SDS011;40632;51.442;11.936;2022-07-30T07:52:02;10.50;;;6.45;;
54735;SDS011;40632;51.442;11.936;2022-07-30T07:54:28;9.20;;;5.78;;
54735;SDS011;40632;51.442;11.936;2022-07-30T07:56:53;7.35;;;5.80;;
54735;SDS011;40632;51.442;11.936;2022-07-30T07:59:22;11.73;;;7.15;;
54735;SDS011;40632;51.442;11.936;2022-07-30T08:01:48;10.50;;;7.03;;
54735;SDS011;40632;51.442;11.936;2022-07-30T08:04:13;10.20;;;6.70;;
54735;SDS011;40632;51.442;11.936;2022-07-30T08:06:39;10.50;;;7.20;;
54735;SDS011;40632;51.442;11.936;2022-07-30T08:09:05;12.55;;;7.05;;
54735;SDS011;40632;51.442;11.936;2022-07-30T08:11:30;10.35;;;6.97;;
54735;SDS011;40632;51.442;11.936;2022-07-30T08:13:56;10.25;;;6.00;;
54735;SDS011;40632;51.442;11.936;2022-07-30T08:16:24;9.18;;;5.95;;
54735;SDS011;40632;51.442;11.936;2022-07-30T08:18:50;10.43;;;6.78;;
54735;SDS011;40632;51.442;11.936;2022-07-30T08:21:15;13.40;;;6.72;;
54735;SDS011;40632;51.442;11.936;2022-07-30T08:23:41;11.45;;;6.32;;
54735;SDS011;40632;51.442;11.936;2022-07-30T08:26:07;8.07;;;6.28;;
54735;SDS011;40632;51.442;11.936;2022-07-30T08:28:32;11.52;;;6.70;;
54735;SDS011;40632;51.442;11.936;2022-07-30T08:30:59;9.90;;;6.57;;
54735;SDS011;40632;51.442;11.936;2022-07-30T08:33:27;10.77;;;6.32;;
54735;SDS011;40632;51.442;11.936;2022-07-30T08:35:53;7.93;;;5.82;;
54735;SDS011;40632;51.442;11.936;2022-07-30T08:38:18;10.18;;;6.88;;
54735;SDS011;40632;51.442;11.936;2022-07-30T08:40:44;14.43;;;7.72;;
54735;SDS011;40632;51.442;11.936;2022-07-30T08:43:10;15.18;;;8.13;;
54735;SDS011;40632;51.442;11.936;2022-07-30T08:45:36;16.92;;;8.48;;
54735;SDS011;40632;51.442;11.936;2022-07-30T08:48:05;10.48;;;9.43;;
54735;SDS011;40632;51.442;11.936;2022-07-30T08:50:35;16.75;;;11.32;;
54735;SDS011;40632;51.442;11.936;2022-07-30T08:53:01;14.40;;;12.23;;
54735;SDS011;40632;51.442;11.936;2022-07-30T08:55:27;21.75;;;13.35;;
54735;SDS011;40632;51.442;11.936;2022-07-30T08:57:53;20.10;;;13.85;;
54735;SDS011;40632;51.442;11.936;2022-07-30T09:00:19;18.70;;;13.63;;
54735;SDS011;40632;51.442;11.936;2022-07-30T09:02:45;19.38;;;13.90;;
54735;SDS011;40632;51.442;11.936;2022-07-30T09:05:11;19.63;;;13.93;;
54735;SDS011;40632;51.442;11.936;2022-07-30T09:07:39;20.65;;;13.35;;
54735;SDS011;40632;51.442;11.936;2022-07-30T09:10:07;20.33;;;14.25;;
54735;SDS011;40632;51.442;11.936;2022-07-30T09:12:34;20.77;;;14.25;;
54735;SDS011;40632;51.442;11.936;2022-07-30T09:15:03;23.25;;;15.60;;
54735;SDS011;40632;51.442;11.936;2022-07-30T09:17:43;19.60;;;16.42;;
54735;SDS011;40632;51.442;11.936;2022-07-30T09:20:10;22.90;;;15.30;;
54735;SDS011;40632;51.442;11.936;2022-07-30T09:22:45;26.05;;;19.17;;
54735;SDS011;40632;51.442;11.936;2022-07-30T09:25:12;25.67;;;18.75;;
54735;SDS011;40632;51.442;11.936;2022-07-30T09:27:44;20.75;;;18.38;;
54735;SDS011;40632;51.442;11.936;2022-07-30T09:30:11;24.38;;;18.52;;
54735;SDS011;40632;51.442;11.936;2022-07-30T09:32:45;24.23;;;19.35;;
54735;SDS011;40632;51.442;11.936;2022-07-30T09:35:12;30.17;;;19.35;;
54735;SDS011;40632;51.442;11.936;2022-07-30T09:37:38;26.15;;;20.27;;
54735;SDS011;40632;51.442;11.936;2022-07-30T09:40:12;24.35;;;20.05;;
54735;SDS011;40632;51.442;11.936;2022-07-30T09:42:39;23.35;;;20.45;;
54735;SDS011;40632;51.442;11.936;2022-07-30T09:45:06;26.63;;;20.00;;
54735;SDS011;40632;51.442;11.936;2022-07-30T09:47:33;28.90;;;20.05;;
54735;SDS011;40632;51.442;11.936;2022-07-30T09:50:01;26.13;;;19.83;;
54735;SDS011;40632;51.442;11.936;2022-07-30T09:52:28;26.98;;;19.38;;
54735;SDS011;40632;51.442;11.936;2022-07-30T09:54:54;20.50;;;17.60;;
54735;SDS011;40632;51.442;11.936;2022-07-30T09:57:22;23.40;;;17.30;;
54735;SDS011;40632;51.442;11.936;2022-07-30T09:59:48;24.65;;;18.05;;
54735;SDS011;40632;51.442;11.936;2022-07-30T10:02:13;20.90;;;17.02;;
54735;SDS011;40632;51.442;11.936;2022-07-30T10:04:39;26.50;;;19.05;;
54735;SDS011;40632;51.442;11.936;2022-07-30T10:07:05;28.50;;;18.98;;
54735;SDS011;40632;51.442;11.936;2022-07-30T10:09:41;32.60;;;22.10;;
54735;SDS011;40632;51.442;11.936;2022-07-30T10:12:08;31.48;;;21.60;;
54735;SDS011;40632;51.442;11.936;2022-07-30T10:14:36;32.08;;;25.00;;
54735;SDS011;40632;51.442;11.936;2022-07-30T10:17:05;32.25;;;25.80;;
54735;SDS011;40632;51.442;11.936;2022-07-30T10:19:31;32.85;;;24.92;;
54735;SDS011;40632;51.442;11.936;2022-07-30T10:21:57;35.00;;;27.73;;
54735;SDS011;40632;51.442;11.936;2022-07-30T10:24:23;36.85;;;29.25;;
54735;SDS011;40632;51.442;11.936;2022-07-30T10:26:50;38.70;;;30.08;;
54735;SDS011;40632;51.442;11.936;2022-07-30T10:29:17;42.40;;;30.52;;
54735;SDS011;40632;51.442;11.936;2022-07-30T10:31:47;41.97;;;29.45;;
54735;SDS011;40632;51.442;11.936;2022-07-30T10:34:14;37.10;;;27.58;;
54735;SDS011;40632;51.442;11.936;2022-07-30T10:36:42;33.38;;;26.40;;
54735;SDS011;40632;51.442;11.936;2022-07-30T10:39:12;38.50;;;27.88;;
54735;SDS011;40632;51.442;11.936;2022-07-30T10:41:41;33.03;;;24.92;;
54735;SDS011;40632;51.442;11.936;2022-07-30T10:44:22;29.90;;;25.65;;
54735;SDS011;40632;51.442;11.936;2022-07-30T10:47:04;33.15;;;26.05;;
54735;SDS011;40632;51.442;11.936;2022-07-30T10:49:32;40.22;;;28.20;;
54735;SDS011;40632;51.442;11.936;2022-07-30T10:51:58;34.20;;;26.65;;
54735;SDS011;40632;51.442;11.936;2022-07-30T10:54:40;36.08;;;26.48;;
54735;SDS011;40632;51.442;11.936;2022-07-30T10:57:07;31.63;;;25.77;;
54735;SDS011;40632;51.442;11.936;2022-07-30T11:02:39;36.67;;;27.02;;
54735;SDS011;40632;51.442;11.936;2022-07-30T11:05:51;33.35;;;28.40;;
54735;SDS011;40632;51.442;11.936;2022-07-30T11:08:37;33.83;;;27.65;;
54735;SDS011;40632;51.442;11.936;2022-07-30T11:11:04;30.15;;;25.38;;
54735;SDS011;40632;51.442;11.936;2022-07-30T11:13:51;28.13;;;24.83;;
54735;SDS011;40632;51.442;11.936;2022-07-30T11:16:18;31.50;;;24.42;;
54735;SDS011;40632;51.442;11.936;2022-07-30T11:21:32;32.60;;;25.55;;
54735;SDS011;40632;51.442;11.936;2022-07-30T11:23:58;27.38;;;23.85;;
54735;SDS011;40632;51.442;11.936;2022-07-30T11:34:55;23.73;;;19.60;;
54735;SDS011;40632;51.442;11.936;2022-07-30T11:40:23;23.88;;;20.90;;
54735;SDS011;40632;51.442;11.936;2022-07-30T11:42:50;22.58;;;20.10;;
54735;SDS011;40632;51.442;11.936;2022-07-30T11:45:20;21.35;;;18.50;;
54735;SDS011;40632;51.442;11.936;2022-07-30T11:47:47;22.13;;;18.45;;
54735;SDS011;40632;51.442;11.936;2022-07-30T11:50:16;20.27;;;18.33;;
54735;SDS011;40632;51.442;11.936;2022-07-30T11:52:42;20.95;;;17.13;;
54735;SDS011;40632;51.442;11.936;2022-07-30T11:55:11;19.05;;;16.27;;
54735;SDS011;40632;51.442;11.936;2022-07-30T11:57:46;17.98;;;15.43;;
54735;SDS011;40632;51.442;11.936;2022-07-30T12:00:12;16.45;;;14.75;;
54735;SDS011;40632;51.442;11.936;2022-07-30T12:02:38;16.20;;;14.57;;
54735;SDS011;40632;51.442;11.936;2022-07-30T12:05:04;15.43;;;12.27;;
54735;SDS011;40632;51.442;11.936;2022-07-30T12:07:30;14.65;;;12.88;;
54735;SDS011;40632;51.442;11.936;2022-07-30T12:12:42;12.90;;;11.48;;
54735;SDS011;40632;51.442;11.936;2022-07-30T12:15:08;12.65;;;11.02;;
54735;SDS011;40632;51.442;11.936;2022-07-30T12:17:44;12.15;;;10.52;;
54735;SDS011;40632;51.442;11.936;2022-07-30T12:20:14;14.20;;;10.32;;
54735;SDS011;40632;51.442;11.936;2022-07-30T12:22:40;11.73;;;9.75;;
54735;SDS011;40632;51.442;11.936;2022-07-30T12:25:06;10.18;;;8.95;;
54735;SDS011;40632;51.442;11.936;2022-07-30T12:27:35;10.60;;;8.90;;
54735;SDS011;40632;51.442;11.936;2022-07-30T12:30:01;10.18;;;7.75;;
54735;SDS011;40632;51.442;11.936;2022-07-30T12:32:27;10.27;;;7.93;;
54735;SDS011;40632;51.442;11.936;2022-07-30T12:34:53;9.98;;;7.72;;
54735;SDS011;40632;51.442;11.936;2022-07-30T12:37:19;9.05;;;7.35;;
54735;SDS011;40632;51.442;11.936;2022-07-30T12:39:45;11.35;;;7.25;;
54735;SDS011;40632;51.442;11.936;2022-07-30T12:42:16;7.40;;;6.70;;
54735;SDS011;40632;51.442;11.936;2022-07-30T12:44:45;7.32;;;5.88;;
54735;SDS011;40632;51.442;11.936;2022-07-30T12:47:18;7.72;;;6.20;;
54735;SDS011;40632;51.442;11.936;2022-07-30T12:49:45;6.32;;;5.70;;
54735;SDS011;40632;51.442;11.936;2022-07-30T12:52:18;9.25;;;5.40;;
54735;SDS011;40632;51.442;11.936;2022-07-30T12:54:44;7.82;;;5.13;;
54735;SDS011;40632;51.442;11.936;2022-07-30T12:57:21;7.03;;;5.53;;
54735;SDS011;40632;51.442;11.936;2022-07-30T12:59:58;7.70;;;5.30;;
54735;SDS011;40632;51.442;11.936;2022-07-30T13:02:29;8.88;;;4.68;;
54735;SDS011;40632;51.442;11.936;2022-07-30T13:04:55;12.27;;;5.35;;
54735;SDS011;40632;51.442;11.936;2022-07-30T13:07:21;8.15;;;4.80;;
54735;SDS011;40632;51.442;11.936;2022-07-30T13:09:47;7.53;;;5.55;;
54735;SDS011;40632;51.442;11.936;2022-07-30T13:12:30;7.25;;;5.13;;
54735;SDS011;40632;51.442;11.936;2022-07-30T13:14:58;5.82;;;4.72;;
54735;SDS011;40632;51.442;11.936;2022-07-30T13:17:24;7.05;;;5.03;;
54735;SDS011;40632;51.442;11.936;2022-07-30T13:19:49;5.82;;;5.18;;
54735;SDS011;40632;51.442;11.936;2022-07-30T13:22:15;7.72;;;4.82;;
54735;SDS011;40632;51.442;11.936;2022-07-30T13:24:40;7.40;;;4.82;;
54735;SDS011;40632;51.442;11.936;2022-07-30T13:27:06;7.97;;;5.90;;
54735;SDS011;40632;51.442;11.936;2022-07-30T13:29:32;8.63;;;5.70;;
54735;SDS011;40632;51.442;11.936;2022-07-30T13:32:00;9.45;;;5.60;;
54735;SDS011;40632;51.442;11.936;2022-07-30T13:34:25;8.80;;;5.60;;
54735;SDS011;40632;51.442;11.936;2022-07-30T13:36:51;9.07;;;6.30;;
54735;SDS011;40632;51.442;11.936;2022-07-30T13:39:17;9.63;;;5.35;;
54735;SDS011;40632;51.442;11.936;2022-07-30T13:41:42;6.85;;;5.38;;
54735;SDS011;40632;51.442;11.936;2022-07-30T13:44:08;6.22;;;5.05;;
54735;SDS011;40632;51.442;11.936;2022-07-30T13:46:33;6.47;;;5.35;;
54735;SDS011;40632;51.442;11.936;2022-07-30T13:49:02;8.73;;;5.53;;
54735;SDS011;40632;51.442;11.936;2022-07-30T13:51:28;7.63;;;5.35;;
54735;SDS011;40632;51.442;11.936;2022-07-30T13:53:53;8.93;;;5.68;;
54735;SDS011;40632;51.442;11.936;2022-07-30T13:56:19;7.20;;;5.22;;
54735;SDS011;40632;51.442;11.936;2022-07-30T13:58:44;11.15;;;5.38;;
54735;SDS011;40632;51.442;11.936;2022-07-30T14:01:10;8.18;;;4.85;;
54735;SDS011;40632;51.442;11.936;2022-07-30T14:03:36;6.57;;;4.95;;
54735;SDS011;40632;51.442;11.936;2022-07-30T14:06:04;7.72;;;5.32;;
54735;SDS011;40632;51.442;11.936;2022-07-30T14:08:30;8.30;;;4.60;;
54735;SDS011;40632;51.442;11.936;2022-07-30T14:10:55;6.40;;;4.57;;
54735;SDS011;40632;51.442;11.936;2022-07-30T14:13:21;9.18;;;5.10;;
54735;SDS011;40632;51.442;11.936;2022-07-30T14:15:47;6.75;;;4.60;;
54735;SDS011;40632;51.442;11.936;2022-07-30T14:18:12;7.28;;;4.57;;
54735;SDS011;40632;51.442;11.936;2022-07-30T14:20:38;4.40;;;4.00;;
54735;SDS011;40632;51.442;11.936;2022-07-30T14:23:06;6.13;;;4.38;;
54735;SDS011;40632;51.442;11.936;2022-07-30T14:25:32;6.60;;;4.22;;
54735;SDS011;40632;51.442;11.936;2022-07-30T14:27:57;7.30;;;4.78;;
54735;SDS011;40632;51.442;11.936;2022-07-30T14:30:23;6.30;;;4.60;;
54735;SDS011;40632;51.442;11.936;2022-07-30T14:32:48;5.88;;;4.70;;
54735;SDS011;40632;51.442;11.936;2022-07-30T14:35:14;5.72;;;4.78;;
54735;SDS011;40632;51.442;11.936;2022-07-30T14:37:40;6.80;;;4.57;;
54735;SDS011;40632;51.442;11.936;2022-07-30T14:40:09;7.13;;;4.15;;
54735;SDS011;40632;51.442;11.936;2022-07-30T14:42:36;6.55;;;4.40;;
54735;SDS011;40632;51.442;11.936;2022-07-30T14:45:01;5.68;;;3.95;;